sensor_id;sensor_type;location;lat;lon;timestamp;P1;durP1;ratioP1;P2;durP2;ratioP2
13404;SDS011;6773;51.192;7.024;2023-05-27T00:01:24;15.07;;;3.87;;
13404;SDS011;6773;51.192;7.024;2023-05-27T00:03:50;10.93;;;3.43;;
13404;SDS011;6773;51.192;7.024;2023-05-27T00:06:16;11.83;;;4.03;;
13404;SDS011;6773;51.192;7.024;2023-05-27T00:08:41;11.43;;;3.67;;
13404;SDS011;6773;51.192;7.024;2023-05-27T00:11:07;17.83;;;4.93;;
13404;SDS011;6773;51.192;7.024;2023-05-27T00:13:33;11.77;;;5.27;;
13404;SDS011;6773;51.192;7.024;2023-05-27T00:15:59;9.43;;;3.70;;
13404;SDS011;6773;51.192;7.024;2023-05-27T00:18:25;11.60;;;4.20;;
13404;SDS011;6773;51.192;7.024;2023-05-27T00:20:51;14.47;;;4.03;;
13404;SDS011;6773;51.192;7.024;2023-05-27T00:23:16;15.87;;;5.13;;
13404;SDS011;6773;51.192;7.024;2023-05-27T00:25:42;8.03;;;3.33;;
13404;SDS011;6773;51.192;7.024;2023-05-27T00:28:09;10.60;;;4.13;;
13404;SDS011;6773;51.192;7.024;2023-05-27T00:30:35;12.63;;;4.77;;
13404;SDS011;6773;51.192;7.024;2023-05-27T00:33:00;12.80;;;4.83;;
13404;SDS011;6773;51.192;7.024;2023-05-27T00:35:26;15.47;;;4.13;;
13404;SDS011;6773;51.192;7.024;2023-05-27T00:37:51;14.27;;;4.33;;
13404;SDS011;6773;51.192;7.024;2023-05-27T00:40:20;14.43;;;4.07;;
13404;SDS011;6773;51.192;7.024;2023-05-27T00:42:47;14.43;;;4.10;;
13404;SDS011;6773;51.192;7.024;2023-05-27T00:45:13;16.93;;;4.77;;
13404;SDS011;6773;51.192;7.024;2023-05-27T00:47:39;12.90;;;5.20;;
13404;SDS011;6773;51.192;7.024;2023-05-27T00:50:06;13.57;;;5.37;;
13404;SDS011;6773;51.192;7.024;2023-05-27T00:52:35;15.23;;;4.97;;
13404;SDS011;6773;51.192;7.024;2023-05-27T00:55:01;9.57;;;4.23;;
13404;SDS011;6773;51.192;7.024;2023-05-27T00:57:27;12.13;;;4.33;;
13404;SDS011;6773;51.192;7.024;2023-05-27T00:59:53;6.43;;;3.77;;
13404;SDS011;6773;51.192;7.024;2023-05-27T01:02:18;10.47;;;4.87;;
13404;SDS011;6773;51.192;7.024;2023-05-27T01:04:45;12.53;;;3.93;;
13404;SDS011;6773;51.192;7.024;2023-05-27T01:10:23;17.50;;;4.43;;
13404;SDS011;6773;51.192;7.024;2023-05-27T01:15:24;15.90;;;4.60;;
13404;SDS011;6773;51.192;7.024;2023-05-27T01:17:51;12.10;;;5.47;;
13404;SDS011;6773;51.192;7.024;2023-05-27T01:20:19;14.63;;;4.53;;
13404;SDS011;6773;51.192;7.024;2023-05-27T01:22:45;10.80;;;4.13;;
13404;SDS011;6773;51.192;7.024;2023-05-27T01:25:12;14.80;;;5.00;;
13404;SDS011;6773;51.192;7.024;2023-05-27T01:27:39;9.80;;;4.67;;
13404;SDS011;6773;51.192;7.024;2023-05-27T01:30:05;16.10;;;4.80;;
13404;SDS011;6773;51.192;7.024;2023-05-27T01:32:43;10.90;;;4.63;;
13404;SDS011;6773;51.192;7.024;2023-05-27T01:37:37;16.87;;;5.03;;
13404;SDS011;6773;51.192;7.024;2023-05-27T01:40:06;9.13;;;4.27;;
13404;SDS011;6773;51.192;7.024;2023-05-27T01:42:34;17.13;;;5.60;;
13404;SDS011;6773;51.192;7.024;2023-05-27T01:45:04;13.50;;;5.10;;
13404;SDS011;6773;51.192;7.024;2023-05-27T01:47:32;9.30;;;3.77;;
13404;SDS011;6773;51.192;7.024;2023-05-27T01:49:58;15.17;;;4.83;;
13404;SDS011;6773;51.192;7.024;2023-05-27T01:52:25;16.07;;;5.20;;
13404;SDS011;6773;51.192;7.024;2023-05-27T01:54:51;12.13;;;4.90;;
13404;SDS011;6773;51.192;7.024;2023-05-27T01:57:17;10.63;;;5.10;;
13404;SDS011;6773;51.192;7.024;2023-05-27T01:59:43;14.90;;;4.50;;
13404;SDS011;6773;51.192;7.024;2023-05-27T02:02:08;14.77;;;5.53;;
13404;SDS011;6773;51.192;7.024;2023-05-27T02:04:34;14.07;;;5.30;;
13404;SDS011;6773;51.192;7.024;2023-05-27T02:07:00;17.00;;;5.03;;
13404;SDS011;6773;51.192;7.024;2023-05-27T02:09:26;13.40;;;4.93;;
13404;SDS011;6773;51.192;7.024;2023-05-27T02:11:51;14.87;;;4.80;;
13404;SDS011;6773;51.192;7.024;2023-05-27T02:14:17;17.63;;;4.67;;
13404;SDS011;6773;51.192;7.024;2023-05-27T02:16:43;13.87;;;4.83;;
13404;SDS011;6773;51.192;7.024;2023-05-27T02:19:08;15.83;;;4.93;;
13404;SDS011;6773;51.192;7.024;2023-05-27T02:21:34;13.77;;;4.93;;
13404;SDS011;6773;51.192;7.024;2023-05-27T02:24:03;17.23;;;5.07;;
13404;SDS011;6773;51.192;7.024;2023-05-27T02:26:29;15.90;;;5.30;;
13404;SDS011;6773;51.192;7.024;2023-05-27T02:28:55;13.70;;;4.93;;
13404;SDS011;6773;51.192;7.024;2023-05-27T02:31:21;9.60;;;4.27;;
13404;SDS011;6773;51.192;7.024;2023-05-27T02:33:47;15.00;;;4.77;;
13404;SDS011;6773;51.192;7.024;2023-05-27T02:36:13;16.07;;;5.03;;
13404;SDS011;6773;51.192;7.024;2023-05-27T02:38:39;11.77;;;5.13;;
13404;SDS011;6773;51.192;7.024;2023-05-27T02:41:05;11.30;;;5.00;;
13404;SDS011;6773;51.192;7.024;2023-05-27T02:43:31;12.90;;;4.70;;
13404;SDS011;6773;51.192;7.024;2023-05-27T02:45:57;13.93;;;6.20;;
13404;SDS011;6773;51.192;7.024;2023-05-27T02:48:23;17.40;;;4.90;;
13404;SDS011;6773;51.192;7.024;2023-05-27T02:50:49;12.47;;;4.57;;
13404;SDS011;6773;51.192;7.024;2023-05-27T02:53:14;12.10;;;5.00;;
13404;SDS011;6773;51.192;7.024;2023-05-27T02:55:40;14.50;;;5.27;;
13404;SDS011;6773;51.192;7.024;2023-05-27T02:58:06;11.17;;;4.90;;
13404;SDS011;6773;51.192;7.024;2023-05-27T03:00:33;13.00;;;5.40;;
13404;SDS011;6773;51.192;7.024;2023-05-27T03:02:59;18.23;;;5.30;;
13404;SDS011;6773;51.192;7.024;2023-05-27T03:05:24;12.97;;;5.23;;
13404;SDS011;6773;51.192;7.024;2023-05-27T03:07:50;11.13;;;5.77;;
13404;SDS011;6773;51.192;7.024;2023-05-27T03:10:16;14.70;;;5.10;;
13404;SDS011;6773;51.192;7.024;2023-05-27T03:12:41;11.07;;;5.13;;
13404;SDS011;6773;51.192;7.024;2023-05-27T03:15:07;16.03;;;4.83;;
13404;SDS011;6773;51.192;7.024;2023-05-27T03:20:01;13.17;;;5.33;;
13404;SDS011;6773;51.192;7.024;2023-05-27T03:22:26;12.70;;;5.40;;
13404;SDS011;6773;51.192;7.024;2023-05-27T03:24:52;20.57;;;6.10;;
13404;SDS011;6773;51.192;7.024;2023-05-27T03:27:19;19.30;;;5.70;;
13404;SDS011;6773;51.192;7.024;2023-05-27T03:29:45;14.57;;;5.60;;
13404;SDS011;6773;51.192;7.024;2023-05-27T03:32:11;14.57;;;5.60;;
13404;SDS011;6773;51.192;7.024;2023-05-27T03:34:37;12.77;;;5.23;;
13404;SDS011;6773;51.192;7.024;2023-05-27T03:37:03;18.00;;;5.30;;
13404;SDS011;6773;51.192;7.024;2023-05-27T03:39:29;18.63;;;5.33;;
13404;SDS011;6773;51.192;7.024;2023-05-27T03:41:55;18.73;;;5.57;;
13404;SDS011;6773;51.192;7.024;2023-05-27T03:44:21;13.00;;;5.33;;
13404;SDS011;6773;51.192;7.024;2023-05-27T03:46:47;15.70;;;6.30;;
13404;SDS011;6773;51.192;7.024;2023-05-27T03:49:12;18.53;;;6.60;;
13404;SDS011;6773;51.192;7.024;2023-05-27T03:51:38;16.10;;;5.97;;
13404;SDS011;6773;51.192;7.024;2023-05-27T03:54:05;23.47;;;6.87;;
13404;SDS011;6773;51.192;7.024;2023-05-27T03:56:30;21.47;;;6.27;;
13404;SDS011;6773;51.192;7.024;2023-05-27T03:58:56;14.20;;;6.20;;
13404;SDS011;6773;51.192;7.024;2023-05-27T04:01:21;17.77;;;5.60;;
13404;SDS011;6773;51.192;7.024;2023-05-27T04:03:48;15.17;;;5.80;;
13404;SDS011;6773;51.192;7.024;2023-05-27T04:06:14;12.30;;;5.37;;
13404;SDS011;6773;51.192;7.024;2023-05-27T04:08:40;16.93;;;5.53;;
13404;SDS011;6773;51.192;7.024;2023-05-27T04:11:06;18.27;;;6.57;;
13404;SDS011;6773;51.192;7.024;2023-05-27T04:13:34;14.93;;;5.70;;
13404;SDS011;6773;51.192;7.024;2023-05-27T04:15:59;13.17;;;5.97;;
13404;SDS011;6773;51.192;7.024;2023-05-27T04:18:25;14.07;;;5.50;;
13404;SDS011;6773;51.192;7.024;2023-05-27T04:20:51;15.40;;;5.80;;
13404;SDS011;6773;51.192;7.024;2023-05-27T04:23:17;13.90;;;6.37;;
13404;SDS011;6773;51.192;7.024;2023-05-27T04:25:43;10.43;;;4.97;;
13404;SDS011;6773;51.192;7.024;2023-05-27T04:28:08;14.10;;;5.73;;
13404;SDS011;6773;51.192;7.024;2023-05-27T04:30:34;17.97;;;6.03;;
13404;SDS011;6773;51.192;7.024;2023-05-27T04:33:01;16.10;;;6.33;;
13404;SDS011;6773;51.192;7.024;2023-05-27T04:35:27;13.57;;;5.03;;
13404;SDS011;6773;51.192;7.024;2023-05-27T04:37:56;12.80;;;5.00;;
13404;SDS011;6773;51.192;7.024;2023-05-27T04:40:24;11.77;;;5.17;;
13404;SDS011;6773;51.192;7.024;2023-05-27T04:42:50;13.90;;;5.47;;
13404;SDS011;6773;51.192;7.024;2023-05-27T04:45:16;16.23;;;6.23;;
13404;SDS011;6773;51.192;7.024;2023-05-27T04:47:43;10.97;;;4.67;;
13404;SDS011;6773;51.192;7.024;2023-05-27T04:50:09;14.33;;;5.67;;
13404;SDS011;6773;51.192;7.024;2023-05-27T04:52:36;12.23;;;5.40;;
13404;SDS011;6773;51.192;7.024;2023-05-27T04:55:06;12.00;;;5.17;;
13404;SDS011;6773;51.192;7.024;2023-05-27T04:57:33;11.73;;;5.70;;
13404;SDS011;6773;51.192;7.024;2023-05-27T04:59:59;12.10;;;5.00;;
13404;SDS011;6773;51.192;7.024;2023-05-27T05:02:28;14.83;;;5.70;;
13404;SDS011;6773;51.192;7.024;2023-05-27T05:05:05;16.90;;;5.87;;
13404;SDS011;6773;51.192;7.024;2023-05-27T05:07:31;12.13;;;5.20;;
13404;SDS011;6773;51.192;7.024;2023-05-27T05:10:07;12.63;;;4.87;;
13404;SDS011;6773;51.192;7.024;2023-05-27T05:12:33;12.33;;;4.83;;
13404;SDS011;6773;51.192;7.024;2023-05-27T05:15:00;14.37;;;4.50;;
13404;SDS011;6773;51.192;7.024;2023-05-27T05:17:26;13.03;;;5.57;;
13404;SDS011;6773;51.192;7.024;2023-05-27T05:19:52;11.13;;;5.80;;
13404;SDS011;6773;51.192;7.024;2023-05-27T05:22:18;12.63;;;4.77;;
13404;SDS011;6773;51.192;7.024;2023-05-27T05:24:45;10.90;;;5.37;;
13404;SDS011;6773;51.192;7.024;2023-05-27T05:27:11;15.13;;;5.27;;
13404;SDS011;6773;51.192;7.024;2023-05-27T05:29:37;14.60;;;5.73;;
13404;SDS011;6773;51.192;7.024;2023-05-27T05:32:03;12.80;;;5.03;;
13404;SDS011;6773;51.192;7.024;2023-05-27T05:34:29;13.53;;;4.77;;
13404;SDS011;6773;51.192;7.024;2023-05-27T05:36:55;9.27;;;4.80;;
13404;SDS011;6773;51.192;7.024;2023-05-27T05:39:21;14.13;;;4.80;;
13404;SDS011;6773;51.192;7.024;2023-05-27T05:41:47;9.20;;;4.63;;
13404;SDS011;6773;51.192;7.024;2023-05-27T05:44:13;12.73;;;5.57;;
13404;SDS011;6773;51.192;7.024;2023-05-27T05:46:40;11.50;;;4.73;;
13404;SDS011;6773;51.192;7.024;2023-05-27T05:49:06;12.50;;;4.97;;
13404;SDS011;6773;51.192;7.024;2023-05-27T05:51:32;14.23;;;4.97;;
13404;SDS011;6773;51.192;7.024;2023-05-27T05:53:58;12.00;;;4.43;;
13404;SDS011;6773;51.192;7.024;2023-05-27T05:56:24;14.40;;;4.63;;
13404;SDS011;6773;51.192;7.024;2023-05-27T05:58:53;13.27;;;4.77;;
13404;SDS011;6773;51.192;7.024;2023-05-27T06:01:18;15.20;;;5.57;;
13404;SDS011;6773;51.192;7.024;2023-05-27T06:03:44;8.63;;;3.87;;
13404;SDS011;6773;51.192;7.024;2023-05-27T06:06:10;12.67;;;5.20;;
13404;SDS011;6773;51.192;7.024;2023-05-27T06:08:36;9.17;;;4.50;;
13404;SDS011;6773;51.192;7.024;2023-05-27T06:11:02;11.40;;;4.43;;
13404;SDS011;6773;51.192;7.024;2023-05-27T06:13:28;9.20;;;4.63;;
13404;SDS011;6773;51.192;7.024;2023-05-27T06:15:53;9.97;;;3.87;;
13404;SDS011;6773;51.192;7.024;2023-05-27T06:18:22;12.57;;;4.90;;
13404;SDS011;6773;51.192;7.024;2023-05-27T06:20:48;9.43;;;4.20;;
13404;SDS011;6773;51.192;7.024;2023-05-27T06:23:14;13.23;;;4.50;;
13404;SDS011;6773;51.192;7.024;2023-05-27T06:25:40;10.93;;;4.37;;
13404;SDS011;6773;51.192;7.024;2023-05-27T06:28:06;7.63;;;3.80;;
13404;SDS011;6773;51.192;7.024;2023-05-27T06:30:32;11.77;;;4.40;;
13404;SDS011;6773;51.192;7.024;2023-05-27T06:32:58;10.93;;;4.13;;
13404;SDS011;6773;51.192;7.024;2023-05-27T06:35:24;9.23;;;4.57;;
13404;SDS011;6773;51.192;7.024;2023-05-27T06:37:50;9.00;;;4.20;;
13404;SDS011;6773;51.192;7.024;2023-05-27T06:40:15;10.37;;;4.57;;
13404;SDS011;6773;51.192;7.024;2023-05-27T06:42:42;14.70;;;4.90;;
13404;SDS011;6773;51.192;7.024;2023-05-27T06:45:08;10.53;;;3.77;;
13404;SDS011;6773;51.192;7.024;2023-05-27T06:47:34;13.63;;;4.73;;
13404;SDS011;6773;51.192;7.024;2023-05-27T06:50:00;8.52;;;3.58;;
13404;SDS011;6773;51.192;7.024;2023-05-27T06:52:26;9.23;;;4.40;;
13404;SDS011;6773;51.192;7.024;2023-05-27T06:54:52;10.77;;;4.20;;
13404;SDS011;6773;51.192;7.024;2023-05-27T06:57:18;11.75;;;4.00;;
13404;SDS011;6773;51.192;7.024;2023-05-27T06:59:44;9.60;;;3.72;;
13404;SDS011;6773;51.192;7.024;2023-05-27T07:02:10;11.57;;;4.07;;
13404;SDS011;6773;51.192;7.024;2023-05-27T07:04:36;10.07;;;4.13;;
13404;SDS011;6773;51.192;7.024;2023-05-27T07:07:02;11.77;;;3.78;;
13404;SDS011;6773;51.192;7.024;2023-05-27T07:09:28;12.63;;;3.75;;
13404;SDS011;6773;51.192;7.024;2023-05-27T07:11:54;10.38;;;3.53;;
13404;SDS011;6773;51.192;7.024;2023-05-27T07:14:19;13.85;;;4.55;;
13404;SDS011;6773;51.192;7.024;2023-05-27T07:16:45;8.57;;;3.95;;
13404;SDS011;6773;51.192;7.024;2023-05-27T07:19:11;6.53;;;2.88;;
13404;SDS011;6773;51.192;7.024;2023-05-27T07:21:37;10.27;;;4.10;;
13404;SDS011;6773;51.192;7.024;2023-05-27T07:24:03;12.00;;;4.28;;
13404;SDS011;6773;51.192;7.024;2023-05-27T07:26:29;8.57;;;3.33;;
13404;SDS011;6773;51.192;7.024;2023-05-27T07:28:59;8.25;;;4.13;;
13404;SDS011;6773;51.192;7.024;2023-05-27T07:31:25;12.48;;;3.70;;
13404;SDS011;6773;51.192;7.024;2023-05-27T07:33:52;9.07;;;4.03;;
13404;SDS011;6773;51.192;7.024;2023-05-27T07:36:17;10.43;;;3.50;;
13404;SDS011;6773;51.192;7.024;2023-05-27T07:38:43;11.40;;;3.80;;
13404;SDS011;6773;51.192;7.024;2023-05-27T07:41:09;9.48;;;4.13;;
13404;SDS011;6773;51.192;7.024;2023-05-27T07:43:35;8.65;;;3.58;;
13404;SDS011;6773;51.192;7.024;2023-05-27T07:46:02;8.02;;;3.30;;
13404;SDS011;6773;51.192;7.024;2023-05-27T07:48:28;11.60;;;4.00;;
13404;SDS011;6773;51.192;7.024;2023-05-27T07:50:54;8.00;;;3.40;;
13404;SDS011;6773;51.192;7.024;2023-05-27T07:53:20;8.65;;;3.72;;
13404;SDS011;6773;51.192;7.024;2023-05-27T07:55:46;10.82;;;3.80;;
13404;SDS011;6773;51.192;7.024;2023-05-27T07:58:12;11.38;;;3.58;;
13404;SDS011;6773;51.192;7.024;2023-05-27T08:00:37;8.82;;;3.92;;
13404;SDS011;6773;51.192;7.024;2023-05-27T08:03:03;10.32;;;3.83;;
13404;SDS011;6773;51.192;7.024;2023-05-27T08:05:28;8.30;;;3.40;;
13404;SDS011;6773;51.192;7.024;2023-05-27T08:07:54;7.45;;;3.38;;
13404;SDS011;6773;51.192;7.024;2023-05-27T08:10:20;9.23;;;3.10;;
13404;SDS011;6773;51.192;7.024;2023-05-27T08:12:46;10.90;;;3.58;;
13404;SDS011;6773;51.192;7.024;2023-05-27T08:15:12;7.38;;;3.00;;
13404;SDS011;6773;51.192;7.024;2023-05-27T08:17:37;6.38;;;3.03;;
13404;SDS011;6773;51.192;7.024;2023-05-27T08:20:04;7.97;;;3.20;;
13404;SDS011;6773;51.192;7.024;2023-05-27T08:22:31;7.82;;;3.53;;
13404;SDS011;6773;51.192;7.024;2023-05-27T08:24:56;8.35;;;3.47;;
13404;SDS011;6773;51.192;7.024;2023-05-27T08:27:41;11.30;;;3.75;;
13404;SDS011;6773;51.192;7.024;2023-05-27T08:30:12;10.27;;;3.13;;
13404;SDS011;6773;51.192;7.024;2023-05-27T08:32:38;7.22;;;3.13;;
13404;SDS011;6773;51.192;7.024;2023-05-27T08:35:05;7.75;;;3.22;;
13404;SDS011;6773;51.192;7.024;2023-05-27T08:37:31;8.32;;;3.25;;
13404;SDS011;6773;51.192;7.024;2023-05-27T08:39:57;9.07;;;3.60;;
13404;SDS011;6773;51.192;7.024;2023-05-27T08:42:24;8.93;;;3.25;;
13404;SDS011;6773;51.192;7.024;2023-05-27T08:44:50;7.95;;;3.20;;
13404;SDS011;6773;51.192;7.024;2023-05-27T08:47:16;8.30;;;3.38;;
13404;SDS011;6773;51.192;7.024;2023-05-27T08:49:44;8.25;;;3.03;;
13404;SDS011;6773;51.192;7.024;2023-05-27T08:52:09;7.68;;;3.30;;
13404;SDS011;6773;51.192;7.024;2023-05-27T08:54:36;7.35;;;3.42;;
13404;SDS011;6773;51.192;7.024;2023-05-27T08:57:02;7.28;;;3.20;;
13404;SDS011;6773;51.192;7.024;2023-05-27T08:59:32;8.40;;;3.47;;
13404;SDS011;6773;51.192;7.024;2023-05-27T09:01:59;7.38;;;3.20;;
13404;SDS011;6773;51.192;7.024;2023-05-27T09:04:25;7.03;;;3.17;;
13404;SDS011;6773;51.192;7.024;2023-05-27T09:06:51;6.57;;;3.25;;
13404;SDS011;6773;51.192;7.024;2023-05-27T09:09:17;10.70;;;3.38;;
13404;SDS011;6773;51.192;7.024;2023-05-27T09:11:43;7.85;;;3.22;;
13404;SDS011;6773;51.192;7.024;2023-05-27T09:14:30;8.05;;;2.85;;
13404;SDS011;6773;51.192;7.024;2023-05-27T09:16:56;9.98;;;3.15;;
13404;SDS011;6773;51.192;7.024;2023-05-27T09:19:22;6.32;;;3.00;;
13404;SDS011;6773;51.192;7.024;2023-05-27T09:21:51;7.45;;;3.90;;
13404;SDS011;6773;51.192;7.024;2023-05-27T09:24:22;7.15;;;3.30;;
13404;SDS011;6773;51.192;7.024;2023-05-27T09:26:52;10.98;;;3.78;;
13404;SDS011;6773;51.192;7.024;2023-05-27T09:29:18;9.77;;;3.90;;
13404;SDS011;6773;51.192;7.024;2023-05-27T09:31:45;5.40;;;2.70;;
13404;SDS011;6773;51.192;7.024;2023-05-27T09:34:11;8.07;;;4.22;;
13404;SDS011;6773;51.192;7.024;2023-05-27T09:39:10;6.80;;;3.15;;
13404;SDS011;6773;51.192;7.024;2023-05-27T09:41:37;10.13;;;3.20;;
13404;SDS011;6773;51.192;7.024;2023-05-27T09:44:06;9.02;;;3.80;;
13404;SDS011;6773;51.192;7.024;2023-05-27T09:46:33;8.43;;;3.33;;
13404;SDS011;6773;51.192;7.024;2023-05-27T09:48:59;9.75;;;3.88;;
13404;SDS011;6773;51.192;7.024;2023-05-27T09:51:27;7.53;;;3.55;;
13404;SDS011;6773;51.192;7.024;2023-05-27T09:53:53;10.95;;;3.80;;
13404;SDS011;6773;51.192;7.024;2023-05-27T09:56:26;9.90;;;3.15;;
13404;SDS011;6773;51.192;7.024;2023-05-27T09:58:55;7.22;;;3.42;;
13404;SDS011;6773;51.192;7.024;2023-05-27T10:01:24;8.65;;;3.17;;
13404;SDS011;6773;51.192;7.024;2023-05-27T10:03:53;7.90;;;3.38;;
13404;SDS011;6773;51.192;7.024;2023-05-27T10:06:20;9.15;;;2.90;;
13404;SDS011;6773;51.192;7.024;2023-05-27T10:08:49;9.00;;;3.28;;
13404;SDS011;6773;51.192;7.024;2023-05-27T10:11:17;5.88;;;2.90;;
13404;SDS011;6773;51.192;7.024;2023-05-27T10:13:44;7.57;;;3.63;;
13404;SDS011;6773;51.192;7.024;2023-05-27T10:16:20;7.05;;;3.55;;
13404;SDS011;6773;51.192;7.024;2023-05-27T10:18:46;9.15;;;3.53;;
13404;SDS011;6773;51.192;7.024;2023-05-27T10:21:20;7.88;;;3.53;;
13404;SDS011;6773;51.192;7.024;2023-05-27T10:23:56;8.20;;;3.58;;
13404;SDS011;6773;51.192;7.024;2023-05-27T10:26:33;7.78;;;3.35;;
13404;SDS011;6773;51.192;7.024;2023-05-27T10:29:14;5.15;;;2.50;;
13404;SDS011;6773;51.192;7.024;2023-05-27T10:31:46;6.57;;;2.78;;
13404;SDS011;6773;51.192;7.024;2023-05-27T10:34:12;9.32;;;3.00;;
13404;SDS011;6773;51.192;7.024;2023-05-27T10:36:38;7.05;;;3.00;;
13404;SDS011;6773;51.192;7.024;2023-05-27T10:41:43;12.82;;;3.60;;
13404;SDS011;6773;51.192;7.024;2023-05-27T10:44:09;10.02;;;3.45;;
13404;SDS011;6773;51.192;7.024;2023-05-27T10:46:39;6.63;;;3.20;;
13404;SDS011;6773;51.192;7.024;2023-05-27T10:49:09;6.88;;;3.28;;
13404;SDS011;6773;51.192;7.024;2023-05-27T10:51:37;9.52;;;3.30;;
13404;SDS011;6773;51.192;7.024;2023-05-27T10:54:04;8.00;;;3.53;;
13404;SDS011;6773;51.192;7.024;2023-05-27T10:56:31;10.32;;;3.80;;
13404;SDS011;6773;51.192;7.024;2023-05-27T10:58:57;9.25;;;3.33;;
13404;SDS011;6773;51.192;7.024;2023-05-27T11:01:27;8.40;;;3.05;;
13404;SDS011;6773;51.192;7.024;2023-05-27T11:03:57;5.85;;;2.97;;
13404;SDS011;6773;51.192;7.024;2023-05-27T11:06:23;7.80;;;3.17;;
13404;SDS011;6773;51.192;7.024;2023-05-27T11:08:49;7.28;;;3.00;;
13404;SDS011;6773;51.192;7.024;2023-05-27T11:11:15;7.65;;;3.05;;
13404;SDS011;6773;51.192;7.024;2023-05-27T11:13:44;6.95;;;3.28;;
13404;SDS011;6773;51.192;7.024;2023-05-27T11:16:12;8.35;;;3.20;;
13404;SDS011;6773;51.192;7.024;2023-05-27T11:21:09;6.63;;;3.33;;
13404;SDS011;6773;51.192;7.024;2023-05-27T11:28:44;9.80;;;4.25;;
13404;SDS011;6773;51.192;7.024;2023-05-27T11:31:14;6.53;;;3.10;;
13404;SDS011;6773;51.192;7.024;2023-05-27T11:33:41;8.38;;;4.10;;
13404;SDS011;6773;51.192;7.024;2023-05-27T11:36:10;10.20;;;3.80;;
13404;SDS011;6773;51.192;7.024;2023-05-27T11:41:12;6.13;;;3.28;;
13404;SDS011;6773;51.192;7.024;2023-05-27T11:43:46;8.25;;;3.30;;
13404;SDS011;6773;51.192;7.024;2023-05-27T11:46:12;7.05;;;3.45;;
13404;SDS011;6773;51.192;7.024;2023-05-27T11:48:38;7.07;;;3.40;;
13404;SDS011;6773;51.192;7.024;2023-05-27T11:51:04;8.38;;;3.65;;
13404;SDS011;6773;51.192;7.024;2023-05-27T11:53:30;7.10;;;3.38;;
13404;SDS011;6773;51.192;7.024;2023-05-27T11:55:56;5.68;;;3.40;;
13404;SDS011;6773;51.192;7.024;2023-05-27T11:58:22;6.88;;;3.75;;
13404;SDS011;6773;51.192;7.024;2023-05-27T12:00:47;10.05;;;3.70;;
13404;SDS011;6773;51.192;7.024;2023-05-27T12:03:13;10.45;;;3.60;;
13404;SDS011;6773;51.192;7.024;2023-05-27T12:05:39;7.43;;;3.25;;
13404;SDS011;6773;51.192;7.024;2023-05-27T12:08:04;6.53;;;3.42;;
13404;SDS011;6773;51.192;7.024;2023-05-27T12:10:30;9.50;;;3.72;;
13404;SDS011;6773;51.192;7.024;2023-05-27T12:13:03;8.88;;;3.85;;
13404;SDS011;6773;51.192;7.024;2023-05-27T12:15:29;8.52;;;4.03;;
13404;SDS011;6773;51.192;7.024;2023-05-27T12:17:54;8.35;;;3.47;;
13404;SDS011;6773;51.192;7.024;2023-05-27T12:20:20;7.57;;;3.58;;
13404;SDS011;6773;51.192;7.024;2023-05-27T12:22:46;10.30;;;3.88;;
13404;SDS011;6773;51.192;7.024;2023-05-27T12:25:12;8.23;;;3.67;;
13404;SDS011;6773;51.192;7.024;2023-05-27T12:27:37;9.18;;;3.80;;
13404;SDS011;6773;51.192;7.024;2023-05-27T12:30:03;8.70;;;3.45;;
13404;SDS011;6773;51.192;7.024;2023-05-27T12:32:29;7.22;;;3.45;;
13404;SDS011;6773;51.192;7.024;2023-05-27T12:34:55;6.72;;;3.22;;
13404;SDS011;6773;51.192;7.024;2023-05-27T12:37:21;6.68;;;3.42;;
13404;SDS011;6773;51.192;7.024;2023-05-27T12:39:46;9.80;;;3.85;;
13404;SDS011;6773;51.192;7.024;2023-05-27T12:42:12;8.25;;;3.72;;
13404;SDS011;6773;51.192;7.024;2023-05-27T12:44:38;6.15;;;3.65;;
13404;SDS011;6773;51.192;7.024;2023-05-27T12:47:04;9.10;;;4.20;;
13404;SDS011;6773;51.192;7.024;2023-05-27T12:49:29;10.10;;;4.10;;
13404;SDS011;6773;51.192;7.024;2023-05-27T12:51:55;9.88;;;3.90;;
13404;SDS011;6773;51.192;7.024;2023-05-27T12:54:21;10.93;;;4.38;;
13404;SDS011;6773;51.192;7.024;2023-05-27T12:56:47;8.77;;;3.95;;
13404;SDS011;6773;51.192;7.024;2023-05-27T12:59:12;8.95;;;3.95;;
13404;SDS011;6773;51.192;7.024;2023-05-27T13:01:38;9.95;;;3.47;;
13404;SDS011;6773;51.192;7.024;2023-05-27T13:04:05;6.80;;;3.90;;
13404;SDS011;6773;51.192;7.024;2023-05-27T13:06:31;9.32;;;3.63;;
13404;SDS011;6773;51.192;7.024;2023-05-27T13:08:56;6.82;;;3.10;;
13404;SDS011;6773;51.192;7.024;2023-05-27T13:11:22;7.70;;;3.85;;
13404;SDS011;6773;51.192;7.024;2023-05-27T13:13:48;7.72;;;3.90;;
13404;SDS011;6773;51.192;7.024;2023-05-27T13:16:14;9.15;;;3.88;;
13404;SDS011;6773;51.192;7.024;2023-05-27T13:18:39;8.20;;;3.75;;
13404;SDS011;6773;51.192;7.024;2023-05-27T13:21:05;6.70;;;3.50;;
13404;SDS011;6773;51.192;7.024;2023-05-27T13:23:31;8.45;;;3.80;;
13404;SDS011;6773;51.192;7.024;2023-05-27T13:25:57;9.45;;;3.90;;
13404;SDS011;6773;51.192;7.024;2023-05-27T13:28:23;9.63;;;4.28;;
13404;SDS011;6773;51.192;7.024;2023-05-27T13:30:49;7.25;;;3.25;;
13404;SDS011;6773;51.192;7.024;2023-05-27T13:33:15;10.35;;;3.65;;
13404;SDS011;6773;51.192;7.024;2023-05-27T13:35:40;12.50;;;4.72;;
13404;SDS011;6773;51.192;7.024;2023-05-27T13:38:06;9.75;;;3.92;;
13404;SDS011;6773;51.192;7.024;2023-05-27T13:40:37;7.10;;;3.75;;
13404;SDS011;6773;51.192;7.024;2023-05-27T13:43:02;8.57;;;3.40;;
13404;SDS011;6773;51.192;7.024;2023-05-27T13:45:28;9.48;;;3.97;;
13404;SDS011;6773;51.192;7.024;2023-05-27T13:47:54;9.75;;;3.95;;
13404;SDS011;6773;51.192;7.024;2023-05-27T13:50:20;6.22;;;3.72;;
13404;SDS011;6773;51.192;7.024;2023-05-27T13:52:46;8.95;;;4.00;;
13404;SDS011;6773;51.192;7.024;2023-05-27T13:55:12;5.97;;;3.38;;
13404;SDS011;6773;51.192;7.024;2023-05-27T13:57:38;8.25;;;4.00;;
13404;SDS011;6773;51.192;7.024;2023-05-27T14:00:05;7.93;;;3.88;;
13404;SDS011;6773;51.192;7.024;2023-05-27T14:02:31;10.50;;;4.13;;
13404;SDS011;6773;51.192;7.024;2023-05-27T14:04:57;6.68;;;3.45;;
13404;SDS011;6773;51.192;7.024;2023-05-27T14:07:22;12.23;;;3.88;;
13404;SDS011;6773;51.192;7.024;2023-05-27T14:09:49;8.13;;;4.13;;
13404;SDS011;6773;51.192;7.024;2023-05-27T14:12:15;9.52;;;3.95;;
13404;SDS011;6773;51.192;7.024;2023-05-27T14:14:40;7.60;;;3.97;;
13404;SDS011;6773;51.192;7.024;2023-05-27T14:17:06;10.55;;;4.20;;
13404;SDS011;6773;51.192;7.024;2023-05-27T14:19:33;8.82;;;4.07;;
13404;SDS011;6773;51.192;7.024;2023-05-27T14:21:59;8.93;;;3.70;;
13404;SDS011;6773;51.192;7.024;2023-05-27T14:24:25;5.95;;;3.80;;
13404;SDS011;6773;51.192;7.024;2023-05-27T14:26:50;8.48;;;3.88;;
13404;SDS011;6773;51.192;7.024;2023-05-27T14:29:16;7.30;;;3.67;;
13404;SDS011;6773;51.192;7.024;2023-05-27T14:31:42;8.93;;;3.88;;
13404;SDS011;6773;51.192;7.024;2023-05-27T14:34:08;10.15;;;3.88;;
13404;SDS011;6773;51.192;7.024;2023-05-27T14:36:33;11.88;;;4.28;;
13404;SDS011;6773;51.192;7.024;2023-05-27T14:39:00;6.95;;;3.70;;
13404;SDS011;6773;51.192;7.024;2023-05-27T14:41:28;8.18;;;3.90;;
13404;SDS011;6773;51.192;7.024;2023-05-27T14:43:54;8.95;;;3.88;;
13404;SDS011;6773;51.192;7.024;2023-05-27T14:46:19;11.20;;;3.45;;
13404;SDS011;6773;51.192;7.024;2023-05-27T14:48:45;10.40;;;4.30;;
13404;SDS011;6773;51.192;7.024;2023-05-27T14:51:11;8.98;;;3.63;;
13404;SDS011;6773;51.192;7.024;2023-05-27T14:53:37;6.03;;;3.78;;
13404;SDS011;6773;51.192;7.024;2023-05-27T14:56:03;6.80;;;3.42;;
13404;SDS011;6773;51.192;7.024;2023-05-27T14:58:29;8.88;;;3.80;;
13404;SDS011;6773;51.192;7.024;2023-05-27T15:00:55;6.50;;;3.72;;
13404;SDS011;6773;51.192;7.024;2023-05-27T15:03:21;10.90;;;3.75;;
13404;SDS011;6773;51.192;7.024;2023-05-27T15:05:47;8.88;;;4.07;;
13404;SDS011;6773;51.192;7.024;2023-05-27T15:08:13;8.32;;;3.53;;
13404;SDS011;6773;51.192;7.024;2023-05-27T15:10:40;8.30;;;3.90;;
13404;SDS011;6773;51.192;7.024;2023-05-27T15:13:06;10.68;;;3.78;;
13404;SDS011;6773;51.192;7.024;2023-05-27T15:15:32;6.32;;;3.70;;
13404;SDS011;6773;51.192;7.024;2023-05-27T15:18:00;8.02;;;3.65;;